sensor_id;sensor_type;location;lat;lon;timestamp;pressure;altitude;pressure_sealevel;temperature;humidity
43161;BME280;40968;52.342;5.528;2023-01-28T00:01:53;103024.09;;;2.38;70.95
43161;BME280;40968;52.342;5.528;2023-01-28T00:04:20;102788.47;;;0.99;70.81
43161;BME280;40968;52.342;5.528;2023-01-28T00:06:48;103047.91;;;2.44;71.04
43161;BME280;40968;52.342;5.528;2023-01-28T00:09:15;103008.31;;;2.13;71.13
43161;BME280;40968;52.342;5.528;2023-01-28T00:11:42;102917.75;;;1.61;71.22
43161;BME280;40968;52.342;5.528;2023-01-28T00:14:10;102813.97;;;1.01;71.34
43161;BME280;40968;52.342;5.528;2023-01-28T00:16:37;103061.09;;;2.42;71.62
43161;BME280;40968;52.342;5.528;2023-01-28T00:19:03;103001.28;;;2.12;71.88
43161;BME280;40968;52.342;5.528;2023-01-28T00:21:30;102887.84;;;1.42;72.07
43161;BME280;40968;52.342;5.528;2023-01-28T00:23:58;102821.00;;;1.05;72.39
43161;BME280;40968;52.342;5.528;2023-01-28T00:26:25;103017.06;;;2.30;72.88
43161;BME280;40968;52.342;5.528;2023-01-28T00:28:52;103047.00;;;2.48;73.08
43161;BME280;40968;52.342;5.528;2023-01-28T00:31:21;102973.97;;;2.04;73.14
43161;BME280;40968;52.342;5.528;2023-01-28T00:33:49;102879.88;;;1.50;73.28
43161;BME280;40968;52.342;5.528;2023-01-28T00:36:18;103038.16;;;2.46;73.52
43161;BME280;40968;52.342;5.528;2023-01-28T00:38:48;102819.25;;;1.14;73.07
43161;BME280;40968;52.342;5.528;2023-01-28T00:41:18;103038.22;;;2.40;73.36
43161;BME280;40968;52.342;5.528;2023-01-28T00:43:46;102720.84;;;0.49;72.90
43161;BME280;40968;52.342;5.528;2023-01-28T00:46:13;103035.56;;;2.35;72.85
43161;BME280;40968;52.342;5.528;2023-01-28T00:48:42;103034.75;;;2.19;71.81
43161;BME280;40968;52.342;5.528;2023-01-28T00:51:10;103046.16;;;2.34;71.86
43161;BME280;40968;52.342;5.528;2023-01-28T00:53:38;103001.31;;;2.06;71.80
43161;BME280;40968;52.342;5.528;2023-01-28T00:56:06;103023.28;;;2.19;72.05
43161;BME280;40968;52.342;5.528;2023-01-28T00:58:35;102814.00;;;0.93;72.00
43161;BME280;40968;52.342;5.528;2023-01-28T01:01:08;102815.75;;;1.02;72.43
43161;BME280;40968;52.342;5.528;2023-01-28T01:03:36;102828.94;;;1.11;72.72
43161;BME280;40968;52.342;5.528;2023-01-28T01:06:03;103004.81;;;2.14;72.63
43161;BME280;40968;52.342;5.528;2023-01-28T01:08:30;102721.72;;;0.42;72.53
43161;BME280;40968;52.342;5.528;2023-01-28T01:11:00;103011.84;;;2.15;73.08
43161;BME280;40968;52.342;5.528;2023-01-28T01:13:27;102959.94;;;1.85;73.04
43161;BME280;40968;52.342;5.528;2023-01-28T01:16:02;102975.81;;;1.81;73.19
43161;BME280;40968;52.342;5.528;2023-01-28T01:18:29;103049.72;;;2.25;73.52
43161;BME280;40968;52.342;5.528;2023-01-28T01:20:56;103024.19;;;2.16;73.66
43161;BME280;40968;52.342;5.528;2023-01-28T01:23:24;102831.59;;;1.08;73.52
43161;BME280;40968;52.342;5.528;2023-01-28T01:25:51;102980.19;;;1.93;73.53
43161;BME280;40968;52.342;5.528;2023-01-28T01:28:18;102851.84;;;1.09;73.49
43161;BME280;40968;52.342;5.528;2023-01-28T01:30:45;102909.84;;;1.46;73.39
43161;BME280;40968;52.342;5.528;2023-01-28T01:33:14;103033.88;;;2.19;73.64
43161;BME280;40968;52.342;5.528;2023-01-28T01:35:41;102879.06;;;1.32;73.52
43161;BME280;40968;52.342;5.528;2023-01-28T01:38:08;102815.78;;;0.91;73.56
43161;BME280;40968;52.342;5.528;2023-01-28T01:40:34;103005.75;;;1.88;73.82
43161;BME280;40968;52.342;5.528;2023-01-28T01:43:04;102832.50;;;0.91;73.75
43161;BME280;40968;52.342;5.528;2023-01-28T01:45:37;103060.28;;;2.26;73.83
43161;BME280;40968;52.342;5.528;2023-01-28T01:48:08;102993.44;;;1.82;73.88
43161;BME280;40968;52.342;5.528;2023-01-28T01:50:46;102989.03;;;1.81;73.97
43161;BME280;40968;52.342;5.528;2023-01-28T01:53:15;102830.72;;;0.89;73.93
43161;BME280;40968;52.342;5.528;2023-01-28T01:55:46;103012.81;;;1.92;74.13
43161;BME280;40968;52.342;5.528;2023-01-28T01:58:15;102847.47;;;0.98;73.95
43161;BME280;40968;52.342;5.528;2023-01-28T02:00:44;103070.94;;;2.20;74.29
43161;BME280;40968;52.342;5.528;2023-01-28T02:03:12;103026.03;;;1.95;74.36
43161;BME280;40968;52.342;5.528;2023-01-28T02:05:41;102917.84;;;1.26;74.12
43161;BME280;40968;52.342;5.528;2023-01-28T02:08:07;103072.66;;;2.21;74.88
43161;BME280;40968;52.342;5.528;2023-01-28T02:10:51;102992.59;;;1.73;73.99
43161;BME280;40968;52.342;5.528;2023-01-28T02:13:20;103069.19;;;2.18;73.15
43161;BME280;40968;52.342;5.528;2023-01-28T02:15:48;103066.50;;;2.16;72.77
43161;BME280;40968;52.342;5.528;2023-01-28T02:18:15;103073.59;;;2.14;72.13
43161;BME280;40968;52.342;5.528;2023-01-28T02:21:03;102865.06;;;0.79;71.73
43161;BME280;40968;52.342;5.528;2023-01-28T02:23:49;103066.56;;;2.04;71.78
43161;BME280;40968;52.342;5.528;2023-01-28T02:26:37;103041.91;;;1.92;71.35
43161;BME280;40968;52.342;5.528;2023-01-28T02:29:14;103052.47;;;1.95;71.39
43161;BME280;40968;52.342;5.528;2023-01-28T02:31:51;103075.38;;;2.09;71.81
43161;BME280;40968;52.342;5.528;2023-01-28T02:34:23;103082.41;;;2.10;72.03
43161;BME280;40968;52.342;5.528;2023-01-28T02:36:58;103026.06;;;1.77;72.05
43161;BME280;40968;52.342;5.528;2023-01-28T02:39:32;102925.75;;;1.16;72.32
43161;BME280;40968;52.342;5.528;2023-01-28T02:42:04;103087.69;;;2.07;72.47
43161;BME280;40968;52.342;5.528;2023-01-28T02:44:33;103087.69;;;2.07;72.28
43161;BME280;40968;52.342;5.528;2023-01-28T02:47:00;102826.38;;;0.52;72.11
43161;BME280;40968;52.342;5.528;2023-01-28T02:49:57;103056.03;;;1.85;72.04
43161;BME280;40968;52.342;5.528;2023-01-28T02:52:34;102754.28;;;0.05;71.75
43161;BME280;40968;52.342;5.528;2023-01-28T02:55:27;103061.28;;;1.94;71.57
43161;BME280;40968;52.342;5.528;2023-01-28T02:58:00;102852.75;;;0.71;71.13
43161;BME280;40968;52.342;5.528;2023-01-28T03:00:39;102856.28;;;0.74;70.94
43161;BME280;40968;52.342;5.528;2023-01-28T03:03:14;103001.47;;;1.50;70.32
43161;BME280;40968;52.342;5.528;2023-01-28T03:05:44;103026.09;;;1.68;70.49
43161;BME280;40968;52.342;5.528;2023-01-28T03:08:30;102738.47;;;0.01;69.82
43161;BME280;40968;52.342;5.528;2023-01-28T03:11:16;103066.56;;;1.97;70.59
43161;BME280;40968;52.342;5.528;2023-01-28T03:14:01;103061.31;;;1.82;69.88
43161;BME280;40968;52.342;5.528;2023-01-28T03:16:49;102943.38;;;1.16;69.50
43161;BME280;40968;52.342;5.528;2023-01-28T03:19:33;103063.09;;;1.80;69.54
43161;BME280;40968;52.342;5.528;2023-01-28T03:22:18;102790.34;;;0.26;69.44
43161;BME280;40968;52.342;5.528;2023-01-28T03:25:02;102865.97;;;0.74;69.51
43161;BME280;40968;52.342;5.528;2023-01-28T03:27:50;102860.69;;;0.72;69.65
43161;BME280;40968;52.342;5.528;2023-01-28T03:30:39;103078.91;;;1.92;70.33
43161;BME280;40968;52.342;5.528;2023-01-28T03:33:27;102775.38;;;0.30;69.70
43161;BME280;40968;52.342;5.528;2023-01-28T03:36:13;102849.22;;;0.73;69.55
43161;BME280;40968;52.342;5.528;2023-01-28T03:38:57;103009.38;;;1.65;69.48
43161;BME280;40968;52.342;5.528;2023-01-28T03:41:25;102922.25;;;1.16;69.38
43161;BME280;40968;52.342;5.528;2023-01-28T03:43:52;103016.41;;;1.67;68.85
43161;BME280;40968;52.342;5.528;2023-01-28T03:46:19;102862.44;;;0.75;68.74
43161;BME280;40968;52.342;5.528;2023-01-28T03:48:47;102723.50;;;-0.16;67.99
43161;BME280;40968;52.342;5.528;2023-01-28T03:51:13;103023.47;;;1.64;69.39
43161;BME280;40968;52.342;5.528;2023-01-28T03:53:42;102964.50;;;1.31;69.64
43161;BME280;40968;52.342;5.528;2023-01-28T03:56:08;102794.72;;;0.32;70.16
43161;BME280;40968;52.342;5.528;2023-01-28T03:58:42;103071.88;;;1.88;70.36
43161;BME280;40968;52.342;5.528;2023-01-28T04:01:18;103085.09;;;1.90;68.58
43161;BME280;40968;52.342;5.528;2023-01-28T04:03:44;102825.50;;;0.44;68.74
43161;BME280;40968;52.342;5.528;2023-01-28T04:06:13;102814.97;;;0.36;69.04
43161;BME280;40968;52.342;5.528;2023-01-28T04:08:40;103032.28;;;1.59;69.20
43161;BME280;40968;52.342;5.528;2023-01-28T04:11:17;103038.44;;;1.59;70.04
43161;BME280;40968;52.342;5.528;2023-01-28T04:13:45;103078.94;;;1.89;70.62
43161;BME280;40968;52.342;5.528;2023-01-28T04:16:14;102983.88;;;1.24;71.29
43161;BME280;40968;52.342;5.528;2023-01-28T04:18:44;102949.53;;;0.99;71.25
43161;BME280;40968;52.342;5.528;2023-01-28T04:21:12;102867.72;;;0.44;71.54
43161;BME280;40968;52.342;5.528;2023-01-28T04:23:39;102894.13;;;0.59;71.60
43161;BME280;40968;52.342;5.528;2023-01-28T04:26:05;102850.13;;;0.37;71.95
43161;BME280;40968;52.342;5.528;2023-01-28T04:28:32;103082.50;;;1.67;71.14
43161;BME280;40968;52.342;5.528;2023-01-28T04:30:59;103126.53;;;1.74;70.38
43161;BME280;40968;52.342;5.528;2023-01-28T04:33:26;103104.53;;;1.72;70.03
43161;BME280;40968;52.342;5.528;2023-01-28T04:35:53;103098.34;;;1.73;70.02
43161;BME280;40968;52.342;5.528;2023-01-28T04:38:21;102991.78;;;1.07;70.12
43161;BME280;40968;52.342;5.528;2023-01-28T04:40:49;103008.53;;;1.17;70.49
43161;BME280;40968;52.342;5.528;2023-01-28T04:43:15;102758.66;;;-0.29;70.98
43161;BME280;40968;52.342;5.528;2023-01-28T04:45:42;103102.78;;;1.69;71.61
43161;BME280;40968;52.342;5.528;2023-01-28T04:48:09;102916.97;;;0.59;70.67
43161;BME280;40968;52.342;5.528;2023-01-28T04:50:36;103094.81;;;1.68;70.87
43161;BME280;40968;52.342;5.528;2023-01-28T04:53:02;103019.97;;;1.33;70.75
43161;BME280;40968;52.342;5.528;2023-01-28T04:55:30;102972.44;;;1.07;70.17
43161;BME280;40968;52.342;5.528;2023-01-28T04:57:57;103008.53;;;1.20;69.36
43161;BME280;40968;52.342;5.528;2023-01-28T05:00:24;103063.13;;;1.46;69.35
43161;BME280;40968;52.342;5.528;2023-01-28T05:02:50;102788.50;;;-0.21;69.24
43161;BME280;40968;52.342;5.528;2023-01-28T05:05:17;103034.06;;;1.33;68.89
43161;BME280;40968;52.342;5.528;2023-01-28T05:07:49;103065.75;;;1.55;69.42
43161;BME280;40968;52.342;5.528;2023-01-28T05:10:16;103045.53;;;1.42;69.27
43161;BME280;40968;52.342;5.528;2023-01-28T05:12:45;103085.16;;;1.67;69.92
43161;BME280;40968;52.342;5.528;2023-01-28T05:15:12;102990.91;;;1.16;69.58
43161;BME280;40968;52.342;5.528;2023-01-28T05:17:39;103085.16;;;1.67;69.81
43161;BME280;40968;52.342;5.528;2023-01-28T05:20:08;103085.13;;;1.63;70.16
43161;BME280;40968;52.342;5.528;2023-01-28T05:22:35;102835.16;;;0.09;69.66
43161;BME280;40968;52.342;5.528;2023-01-28T05:25:01;103090.44;;;1.46;70.04
43161;BME280;40968;52.342;5.528;2023-01-28T05:27:29;103079.00;;;1.46;69.47
43161;BME280;40968;52.342;5.528;2023-01-28T05:29:58;103069.28;;;1.36;69.47
43161;BME280;40968;52.342;5.528;2023-01-28T05:32:25;102861.50;;;0.05;69.21
43161;BME280;40968;52.342;5.528;2023-01-28T05:34:51;103023.50;;;1.09;69.46
43161;BME280;40968;52.342;5.528;2023-01-28T05:37:18;103100.13;;;1.49;69.11
43161;BME280;40968;52.342;5.528;2023-01-28T05:39:45;102818.41;;;-0.22;69.21
43161;BME280;40968;52.342;5.528;2023-01-28T05:42:12;102941.59;;;0.56;68.98
43161;BME280;40968;52.342;5.528;2023-01-28T05:44:39;102989.16;;;0.79;69.30
43161;BME280;40968;52.342;5.528;2023-01-28T05:47:08;103024.38;;;1.03;69.71
43161;BME280;40968;52.342;5.528;2023-01-28T05:49:34;102771.75;;;-0.53;69.05
43161;BME280;40968;52.342;5.528;2023-01-28T05:52:01;103021.72;;;1.02;68.96
43161;BME280;40968;52.342;5.528;2023-01-28T05:54:28;102793.78;;;-0.34;69.12
43161;BME280;40968;52.342;5.528;2023-01-28T05:56:54;102831.63;;;-0.04;68.79
43161;BME280;40968;52.342;5.528;2023-01-28T05:59:21;103036.72;;;1.09;68.93
43161;BME280;40968;52.342;5.528;2023-01-28T06:01:47;103053.44;;;1.17;68.49
43161;BME280;40968;52.342;5.528;2023-01-28T06:04:15;102709.28;;;-1.02;68.70
43161;BME280;40968;52.342;5.528;2023-01-28T06:06:43;102799.91;;;-0.38;68.59
43161;BME280;40968;52.342;5.528;2023-01-28T06:09:09;103001.44;;;0.76;68.85
43161;BME280;40968;52.342;5.528;2023-01-28T06:11:36;102880.88;;;0.16;68.72
43161;BME280;40968;52.342;5.528;2023-01-28T06:14:03;103078.09;;;1.27;68.76
43161;BME280;40968;52.342;5.528;2023-01-28T06:16:29;103089.56;;;1.40;68.91
43161;BME280;40968;52.342;5.528;2023-01-28T06:18:56;103084.25;;;1.40;68.77
43161;BME280;40968;52.342;5.528;2023-01-28T06:21:24;103031.44;;;1.03;68.67
43161;BME280;40968;52.342;5.528;2023-01-28T06:23:51;103083.38;;;1.27;68.64
43161;BME280;40968;52.342;5.528;2023-01-28T06:26:18;102942.50;;;0.46;68.72
43161;BME280;40968;52.342;5.528;2023-01-28T06:28:44;103108.94;;;1.36;68.32
43161;BME280;40968;52.342;5.528;2023-01-28T06:31:11;103052.56;;;1.03;68.52
43161;BME280;40968;52.342;5.528;2023-01-28T06:33:38;103073.69;;;1.20;68.09
43161;BME280;40968;52.342;5.528;2023-01-28T06:36:05;103093.06;;;1.29;67.65
43161;BME280;40968;52.342;5.528;2023-01-28T06:38:33;103066.63;;;1.14;68.26
43161;BME280;40968;52.342;5.528;2023-01-28T06:41:00;103054.31;;;0.99;68.66
43161;BME280;40968;52.342;5.528;2023-01-28T06:43:27;102911.66;;;0.23;68.26
43161;BME280;40968;52.342;5.528;2023-01-28T06:45:55;103121.25;;;1.38;68.43
43161;BME280;40968;52.342;5.528;2023-01-28T06:48:22;103096.59;;;1.25;68.09
43161;BME280;40968;52.342;5.528;2023-01-28T06:50:49;103084.28;;;1.18;68.49
43161;BME280;40968;52.342;5.528;2023-01-28T06:53:16;103004.94;;;0.65;68.33
43161;BME280;40968;52.342;5.528;2023-01-28T06:55:45;103120.41;;;1.38;68.97
43161;BME280;40968;52.342;5.528;2023-01-28T06:58:13;103100.09;;;1.33;69.02
43161;BME280;40968;52.342;5.528;2023-01-28T07:00:42;102963.59;;;0.54;69.01
43161;BME280;40968;52.342;5.528;2023-01-28T07:03:10;103060.47;;;1.12;69.10
43161;BME280;40968;52.342;5.528;2023-01-28T07:05:37;102814.84;;;-0.30;69.37
43161;BME280;40968;52.342;5.528;2023-01-28T07:08:04;102812.25;;;-0.26;69.10
43161;BME280;40968;52.342;5.528;2023-01-28T07:10:30;103106.28;;;1.54;69.89
43161;BME280;40968;52.342;5.528;2023-01-28T07:12:58;103048.16;;;1.22;70.16
43161;BME280;40968;52.342;5.528;2023-01-28T07:15:25;103061.34;;;1.20;70.88
43161;BME280;40968;52.342;5.528;2023-01-28T07:17:51;103112.47;;;1.59;70.10
43161;BME280;40968;52.342;5.528;2023-01-28T07:20:18;102895.84;;;0.31;70.30
43161;BME280;40968;52.342;5.528;2023-01-28T07:22:45;102916.97;;;0.36;70.55
43161;BME280;40968;52.342;5.528;2023-01-28T07:25:13;103119.50;;;1.62;70.54
43161;BME280;40968;52.342;5.528;2023-01-28T07:27:45;102887.03;;;0.24;70.94
43161;BME280;40968;52.342;5.528;2023-01-28T07:30:15;103130.09;;;1.67;71.58
43161;BME280;40968;52.342;5.528;2023-01-28T07:32:42;102804.34;;;-0.26;70.70
43161;BME280;40968;52.342;5.528;2023-01-28T07:35:09;103027.88;;;1.01;69.92
43161;BME280;40968;52.342;5.528;2023-01-28T07:37:36;102996.19;;;1.01;69.72
43161;BME280;40968;52.342;5.528;2023-01-28T07:40:04;103017.31;;;1.01;69.73
43161;BME280;40968;52.342;5.528;2023-01-28T07:42:33;102908.16;;;0.37;70.25
43161;BME280;40968;52.342;5.528;2023-01-28T07:45:03;102902.88;;;0.37;69.82
43161;BME280;40968;52.342;5.528;2023-01-28T07:47:32;103058.72;;;1.26;69.62
43161;BME280;40968;52.342;5.528;2023-01-28T07:49:58;102790.25;;;-0.36;70.92
43161;BME280;40968;52.342;5.528;2023-01-28T07:52:25;103141.53;;;1.75;71.21
43161;BME280;40968;52.342;5.528;2023-01-28T07:54:52;102911.69;;;0.39;71.09
43161;BME280;40968;52.342;5.528;2023-01-28T07:57:18;103011.19;;;1.00;71.60
43161;BME280;40968;52.342;5.528;2023-01-28T07:59:47;102766.56;;;-0.34;70.99
43161;BME280;40968;52.342;5.528;2023-01-28T08:02:15;103143.28;;;1.82;70.63
43161;BME280;40968;52.342;5.528;2023-01-28T08:04:45;103144.19;;;1.81;69.98
43161;BME280;40968;52.342;5.528;2023-01-28T08:07:11;102862.41;;;0.11;70.18
43161;BME280;40968;52.342;5.528;2023-01-28T08:09:38;103056.97;;;1.21;71.33
43161;BME280;40968;52.342;5.528;2023-01-28T08:12:05;102945.13;;;0.61;70.23
43161;BME280;40968;52.342;5.528;2023-01-28T08:14:32;102920.50;;;0.45;70.21
43161;BME280;40968;52.342;5.528;2023-01-28T08:16:58;103094.84;;;1.46;70.81
43161;BME280;40968;52.342;5.528;2023-01-28T08:19:25;102931.94;;;0.58;70.46
43161;BME280;40968;52.342;5.528;2023-01-28T08:21:53;102812.25;;;-0.18;69.82
43161;BME280;40968;52.342;5.528;2023-01-28T08:24:20;102827.22;;;-0.05;70.17
43161;BME280;40968;52.342;5.528;2023-01-28T08:26:47;103155.63;;;1.91;70.61
43161;BME280;40968;52.342;5.528;2023-01-28T08:29:14;102940.75;;;0.63;70.26
43161;BME280;40968;52.342;5.528;2023-01-28T08:31:40;103159.16;;;1.93;70.17
43161;BME280;40968;52.342;5.528;2023-01-28T08:34:07;102888.81;;;0.35;70.93
43161;BME280;40968;52.342;5.528;2023-01-28T08:36:37;103080.72;;;1.53;70.21
43161;BME280;40968;52.342;5.528;2023-01-28T08:39:05;102899.38;;;0.38;70.32
43161;BME280;40968;52.342;5.528;2023-01-28T08:41:32;103121.28;;;1.71;69.80
43161;BME280;40968;52.342;5.528;2023-01-28T08:43:58;103098.34;;;1.54;69.67
43161;BME280;40968;52.342;5.528;2023-01-28T08:46:25;102989.16;;;0.90;70.13
43161;BME280;40968;52.342;5.528;2023-01-28T08:48:52;103128.31;;;1.76;70.66
43161;BME280;40968;52.342;5.528;2023-01-28T08:51:18;103182.94;;;2.10;69.59
43161;BME280;40968;52.342;5.528;2023-01-28T08:53:45;103117.75;;;1.69;69.48
43161;BME280;40968;52.342;5.528;2023-01-28T08:56:13;103099.22;;;1.61;70.05
43161;BME280;40968;52.342;5.528;2023-01-28T08:58:40;103203.22;;;2.17;69.18
43161;BME280;40968;52.342;5.528;2023-01-28T09:01:07;102977.72;;;0.99;68.74
43161;BME280;40968;52.342;5.528;2023-01-28T09:03:34;102934.59;;;0.64;69.53
43161;BME280;40968;52.342;5.528;2023-01-28T09:06:01;103175.88;;;2.12;69.40
43161;BME280;40968;52.342;5.528;2023-01-28T09:08:28;102968.03;;;0.96;69.10
43161;BME280;40968;52.342;5.528;2023-01-28T09:10:55;102988.28;;;1.04;69.24
43161;BME280;40968;52.342;5.528;2023-01-28T09:13:23;102929.28;;;0.71;69.90
43161;BME280;40968;52.342;5.528;2023-01-28T09:15:51;103193.50;;;2.22;69.72
43161;BME280;40968;52.342;5.528;2023-01-28T09:18:18;103202.31;;;2.34;68.79
43161;BME280;40968;52.342;5.528;2023-01-28T09:20:44;102998.88;;;1.11;68.03
43161;BME280;40968;52.342;5.528;2023-01-28T09:23:12;103009.44;;;1.13;68.16
43161;BME280;40968;52.342;5.528;2023-01-28T09:25:38;103150.34;;;1.97;68.49
43161;BME280;40968;52.342;5.528;2023-01-28T09:28:05;103131.84;;;1.74;68.41
43161;BME280;40968;52.342;5.528;2023-01-28T09:30:33;103105.41;;;1.49;68.24
43161;BME280;40968;52.342;5.528;2023-01-28T09:33:00;103160.91;;;1.91;68.57
43161;BME280;40968;52.342;5.528;2023-01-28T09:35:27;102874.75;;;0.26;68.30
43161;BME280;40968;52.342;5.528;2023-01-28T09:37:55;103012.06;;;0.97;68.35
43161;BME280;40968;52.342;5.528;2023-01-28T09:40:29;103131.81;;;1.68;68.73
43161;BME280;40968;52.342;5.528;2023-01-28T09:43:05;103050.81;;;1.26;68.00
43161;BME280;40968;52.342;5.528;2023-01-28T09:45:37;103138.88;;;1.87;68.10
43161;BME280;40968;52.342;5.528;2023-01-28T09:48:11;103092.19;;;1.47;67.77
43161;BME280;40968;52.342;5.528;2023-01-28T09:50:41;103219.97;;;2.21;67.77
43161;BME280;40968;52.342;5.528;2023-01-28T09:53:12;102960.09;;;0.69;67.49
43161;BME280;40968;52.342;5.528;2023-01-28T09:55:43;102924.00;;;0.43;67.81
43161;BME280;40968;52.342;5.528;2023-01-28T09:58:12;103027.88;;;1.10;68.08
43161;BME280;40968;52.342;5.528;2023-01-28T10:00:46;103159.16;;;1.93;68.04
43161;BME280;40968;52.342;5.528;2023-01-28T10:03:38;103141.53;;;1.84;67.27
43161;BME280;40968;52.342;5.528;2023-01-28T10:06:18;103028.78;;;1.24;67.03
43161;BME280;40968;52.342;5.528;2023-01-28T10:09:05;103233.16;;;2.47;66.73
43161;BME280;40968;52.342;5.528;2023-01-28T10:11:55;103164.44;;;2.05;66.47
43161;BME280;40968;52.342;5.528;2023-01-28T10:14:34;103018.22;;;1.38;67.34
43161;BME280;40968;52.342;5.528;2023-01-28T10:17:10;102921.38;;;0.86;67.00
43161;BME280;40968;52.342;5.528;2023-01-28T10:19:40;103127.41;;;2.10;67.28
43161;BME280;40968;52.342;5.528;2023-01-28T10:22:12;103158.19;;;2.32;66.60
43161;BME280;40968;52.342;5.528;2023-01-28T10:24:46;102968.00;;;1.24;66.48
43161;BME280;40968;52.342;5.528;2023-01-28T10:27:16;102938.97;;;1.12;66.09
43161;BME280;40968;52.342;5.528;2023-01-28T10:29:46;102864.22;;;0.70;65.84
43161;BME280;40968;52.342;5.528;2023-01-28T10:32:21;103170.47;;;2.55;65.51
43161;BME280;40968;52.342;5.528;2023-01-28T10:34:48;102910.78;;;1.14;65.84
43161;BME280;40968;52.342;5.528;2023-01-28T10:37:17;102972.41;;;1.47;65.26
43161;BME280;40968;52.342;5.528;2023-01-28T10:39:44;103033.09;;;1.93;64.95
43161;BME280;40968;52.342;5.528;2023-01-28T10:42:23;102910.78;;;1.26;64.56
43161;BME280;40968;52.342;5.528;2023-01-28T10:44:52;103156.28;;;2.75;64.65
43161;BME280;40968;52.342;5.528;2023-01-28T10:47:29;102834.25;;;1.06;64.55
43161;BME280;40968;52.342;5.528;2023-01-28T10:49:58;103200.19;;;3.25;64.21
43161;BME280;40968;52.342;5.528;2023-01-28T10:52:26;102973.94;;;2.18;63.54
43161;BME280;40968;52.342;5.528;2023-01-28T10:55:00;102958.00;;;2.22;63.71
43161;BME280;40968;52.342;5.528;2023-01-28T10:57:27;103170.84;;;3.58;63.75
43161;BME280;40968;52.342;5.528;2023-01-28T10:59:54;102829.53;;;1.81;63.51
43161;BME280;40968;52.342;5.528;2023-01-28T11:02:27;103160.88;;;3.83;63.11
43161;BME280;40968;52.342;5.528;2023-01-28T11:05:10;102955.03;;;2.75;62.60
43161;BME280;40968;52.342;5.528;2023-01-28T11:07:40;103134.19;;;4.02;62.89
43161;BME280;40968;52.342;5.528;2023-01-28T11:10:24;103041.78;;;3.54;62.91
43161;BME280;40968;52.342;5.528;2023-01-28T11:12:54;103075.94;;;3.88;62.27
43161;BME280;40968;52.342;5.528;2023-01-28T11:15:20;103049.41;;;3.89;62.50
43161;BME280;40968;52.342;5.528;2023-01-28T11:17:52;103115.91;;;4.53;62.31
43161;BME280;40968;52.342;5.528;2023-01-28T11:20:23;103117.53;;;4.67;61.77
43161;BME280;40968;52.342;5.528;2023-01-28T11:22:51;103054.25;;;4.28;60.64
43161;BME280;40968;52.342;5.528;2023-01-28T11:25:24;103098.63;;;4.87;61.08
43161;BME280;40968;52.342;5.528;2023-01-28T11:27:52;103055.44;;;4.74;61.34
43161;BME280;40968;52.342;5.528;2023-01-28T11:30:21;103087.63;;;5.13;61.17
43161;BME280;40968;52.342;5.528;2023-01-28T11:32:55;103083.06;;;5.21;60.44
43161;BME280;40968;52.342;5.528;2023-01-28T11:35:25;103082.88;;;5.34;60.10
43161;BME280;40968;52.342;5.528;2023-01-28T11:37:54;103035.31;;;5.13;59.41
43161;BME280;40968;52.342;5.528;2023-01-28T11:40:21;103073.94;;;5.38;58.55
43161;BME280;40968;52.342;5.528;2023-01-28T11:42:49;102993.94;;;4.98;57.49
43161;BME280;40968;52.342;5.528;2023-01-28T11:45:18;102936.78;;;4.73;57.12
43161;BME280;40968;52.342;5.528;2023-01-28T11:48:04;103026.13;;;5.33;57.43
43161;BME280;40968;52.342;5.528;2023-01-28T11:50:38;102962.78;;;5.08;57.65
43161;BME280;40968;52.342;5.528;2023-01-28T11:53:34;102849.44;;;4.54;57.88
43161;BME280;40968;52.342;5.528;2023-01-28T11:56:24;103060.59;;;5.89;56.62
43161;BME280;40968;52.342;5.528;2023-01-28T11:58:58;102964.97;;;5.35;56.04
43161;BME280;40968;52.342;5.528;2023-01-28T12:01:38;103042.28;;;5.72;55.68
43161;BME280;40968;52.342;5.528;2023-01-28T12:04:17;103020.13;;;5.72;54.60
43161;BME280;40968;52.342;5.528;2023-01-28T12:06:55;103006.78;;;5.73;54.99
43161;BME280;40968;52.342;5.528;2023-01-28T12:09:32;103039.19;;;5.95;54.36
43161;BME280;40968;52.342;5.528;2023-01-28T12:12:15;103058.34;;;6.16;54.79
43161;BME280;40968;52.342;5.528;2023-01-28T12:17:54;102957.81;;;5.84;53.87
43161;BME280;40968;52.342;5.528;2023-01-28T12:20:30;102860.34;;;5.37;54.95
43161;BME280;40968;52.342;5.528;2023-01-28T12:23:09;103059.00;;;6.70;54.34
43161;BME280;40968;52.342;5.528;2023-01-28T12:25:51;103021.78;;;6.65;53.89
43161;BME280;40968;52.342;5.528;2023-01-28T12:28:30;103103.13;;;7.21;53.81
43161;BME280;40968;52.342;5.528;2023-01-28T12:31:15;102880.25;;;6.02;53.11
43161;BME280;40968;52.342;5.528;2023-01-28T12:34:02;103045.66;;;7.09;53.12
43161;BME280;40968;52.342;5.528;2023-01-28T12:36:42;102972.69;;;6.75;52.24
43161;BME280;40968;52.342;5.528;2023-01-28T12:39:22;103092.97;;;7.37;52.67
43161;BME280;40968;52.342;5.528;2023-01-28T12:41:58;103028.16;;;6.95;53.06
43161;BME280;40968;52.342;5.528;2023-01-28T12:44:31;102816.28;;;5.64;53.51
43161;BME280;40968;52.342;5.528;2023-01-28T12:46:59;103066.91;;;7.12;54.36
43161;BME280;40968;52.342;5.528;2023-01-28T12:49:30;103020.44;;;6.85;54.28
43161;BME280;40968;52.342;5.528;2023-01-28T12:52:02;102970.34;;;6.61;54.65
43161;BME280;40968;52.342;5.528;2023-01-28T12:54:35;103042.94;;;7.10;53.77
43161;BME280;40968;52.342;5.528;2023-01-28T12:57:06;103003.72;;;6.78;53.61
43161;BME280;40968;52.342;5.528;2023-01-28T12:59:40;102843.34;;;5.85;54.32
43161;BME280;40968;52.342;5.528;2023-01-28T13:02:20;103035.47;;;6.87;54.29
43161;BME280;40968;52.342;5.528;2023-01-28T13:04:52;103030.88;;;6.55;53.95
43161;BME280;40968;52.342;5.528;2023-01-28T13:07:27;102994.13;;;6.30;54.43
43161;BME280;40968;52.342;5.528;2023-01-28T13:10:02;102945.06;;;6.01;54.71
43161;BME280;40968;52.342;5.528;2023-01-28T13:12:31;103026.91;;;6.34;55.01
43161;BME280;40968;52.342;5.528;2023-01-28T13:14:58;103020.09;;;6.20;55.73
43161;BME280;40968;52.342;5.528;2023-01-28T13:17:28;102918.41;;;5.59;55.91
43161;BME280;40968;52.342;5.528;2023-01-28T13:19:56;102966.63;;;5.87;56.17
43161;BME280;40968;52.342;5.528;2023-01-28T13:22:30;102813.47;;;4.85;56.28